Time;durP1;ratioP1;P1;durP2;ratioP2;P2;SDS_P1;SDS_P2;PMS_P1;PMS_P2;Temp;Humidity;BMP_temperature;BMP_pressure;BME280_temperature;BME280_humidity;BME280_pressure;Samples;Min_cycle;Max_cycle;Signal;HPM_P1;HPM_P2
2024/02/16 00:02:01;;;;;;;6.93;2.63;;;13.30;99.90;;;;;;5104592;28;20498;-68
2024/02/16 00:04:28;;;;;;;5.80;3.20;;;13.30;99.90;;;;;;5108241;28;21372;-68
2024/02/16 00:06:55;;;;;;;7.57;2.58;;;13.30;99.90;;;;;;5109055;28;20051;-68
2024/02/16 00:09:22;;;;;;;4.55;2.70;;;13.30;99.90;;;;;;5103003;28;20134;-68
2024/02/16 00:11:50;;;;;;;7.50;3.05;;;13.30;99.90;;;;;;5108889;28;20044;-68
2024/02/16 00:14:17;;;;;;;4.55;2.97;;;13.30;99.90;;;;;;5103803;28;20054;-68
2024/02/16 00:16:44;;;;;;;9.88;2.83;;;13.30;99.90;;;;;;5109093;28;20066;-69
2024/02/16 00:19:11;;;;;;;6.93;3.15;;;13.30;99.90;;;;;;5105433;28;20469;-67
2024/02/16 00:21:41;;;;;;;8.70;2.97;;;13.40;99.90;;;;;;5105405;28;20047;-68
2024/02/16 00:24:09;;;;;;;5.57;2.65;;;13.40;99.90;;;;;;5105101;28;20127;-67
2024/02/16 00:26:36;;;;;;;9.27;3.22;;;13.40;99.90;;;;;;5105175;28;20358;-67
2024/02/16 00:29:04;;;;;;;8.63;2.88;;;13.40;99.90;;;;;;5104240;28;20048;-67
2024/02/16 00:31:31;;;;;;;5.05;2.60;;;13.40;99.90;;;;;;5101668;28;20043;-67
2024/02/16 00:33:58;;;;;;;6.82;2.47;;;13.40;99.90;;;;;;5088122;28;20496;-68
2024/02/16 00:36:30;;;;;;;16.58;3.53;;;13.40;99.90;;;;;;5108513;28;20180;-68
2024/02/16 00:38:58;;;;;;;9.00;2.88;;;13.40;99.90;;;;;;5107896;28;20423;-69
2024/02/16 00:41:25;;;;;;;6.97;3.20;;;13.50;99.90;;;;;;5105830;28;20475;-67
2024/02/16 00:43:52;;;;;;;6.10;3.40;;;13.50;99.90;;;;;;5089719;28;20155;-67
2024/02/16 00:46:19;;;;;;;7.00;2.83;;;13.50;99.90;;;;;;5103797;28;20040;-67
2024/02/16 00:48:46;;;;;;;5.63;2.97;;;13.50;99.90;;;;;;5099590;28;20047;-68
2024/02/16 00:51:14;;;;;;;8.25;3.22;;;13.50;99.90;;;;;;5088227;28;20567;-67
2024/02/16 00:53:41;;;;;;;9.70;3.30;;;13.50;99.90;;;;;;5095360;28;20513;-68
2024/02/16 00:56:08;;;;;;;6.00;3.17;;;13.50;99.90;;;;;;5067065;28;20066;-67
2024/02/16 00:58:36;;;;;;;12.13;4.35;;;13.50;99.90;;;;;;5104769;28;20059;-68
2024/02/16 01:01:03;;;;;;;6.10;2.97;;;13.50;99.90;;;;;;5103526;28;20047;-68
2024/02/16 01:03:30;;;;;;;6.88;3.47;;;13.50;99.90;;;;;;5107407;28;20048;-68
2024/02/16 01:05:57;;;;;;;9.38;3.58;;;13.50;99.90;;;;;;5107450;28;20043;-68
2024/02/16 01:08:24;;;;;;;5.03;2.95;;;13.60;99.90;;;;;;5107448;28;20035;-68
2024/02/16 01:10:51;;;;;;;10.05;4.82;;;13.60;99.90;;;;;;5108829;28;20133;-69
2024/02/16 01:13:18;;;;;;;6.28;3.60;;;13.50;99.90;;;;;;5107931;28;20050;-69
2024/02/16 01:15:45;;;;;;;8.45;3.00;;;13.50;99.90;;;;;;5108713;28;20044;-68
2024/02/16 01:18:11;;;;;;;12.25;3.55;;;13.50;99.90;;;;;;5103418;28;20119;-68
2024/02/16 01:20:38;;;;;;;6.88;3.60;;;13.50;99.90;;;;;;5108166;28;20421;-70
2024/02/16 01:23:05;;;;;;;7.25;3.75;;;13.50;99.90;;;;;;5104853;28;20047;-67
2024/02/16 01:25:32;;;;;;;10.52;4.18;;;13.50;99.90;;;;;;5106304;28;20043;-69
2024/02/16 01:27:59;;;;;;;12.55;4.05;;;13.50;99.90;;;;;;5106526;28;20051;-66
2024/02/16 01:30:26;;;;;;;18.23;4.20;;;13.40;99.90;;;;;;5087489;28;20048;-69
2024/02/16 01:32:53;;;;;;;7.63;3.63;;;13.40;99.90;;;;;;5097663;28;20043;-69
2024/02/16 01:35:20;;;;;;;9.98;4.43;;;13.40;99.90;;;;;;5107626;28;20047;-68
2024/02/16 01:37:47;;;;;;;7.10;3.60;;;13.40;99.90;;;;;;5108489;28;20040;-68
2024/02/16 01:40:16;;;;;;;7.88;3.28;;;13.40;99.90;;;;;;5104502;28;20412;-68
2024/02/16 01:42:44;;;;;;;10.05;3.30;;;13.40;99.90;;;;;;5105378;28;20100;-68
2024/02/16 01:45:13;;;;;;;11.55;3.88;;;13.30;99.90;;;;;;5106892;28;20397;-69
2024/02/16 01:47:42;;;;;;;10.73;3.90;;;13.30;99.90;;;;;;5104810;28;20044;-69
2024/02/16 01:50:09;;;;;;;12.55;3.97;;;13.30;99.90;;;;;;5102591;28;20051;-69
2024/02/16 01:52:36;;;;;;;13.27;4.68;;;13.20;99.90;;;;;;5101728;28;20556;-68
2024/02/16 01:55:04;;;;;;;11.95;4.57;;;13.20;99.90;;;;;;5104729;28;20035;-69
2024/02/16 01:57:31;;;;;;;6.35;3.60;;;13.10;99.90;;;;;;5104569;28;20056;-67
2024/02/16 01:59:58;;;;;;;6.15;4.00;;;13.20;99.90;;;;;;5105905;28;20043;-67
2024/02/16 02:02:27;;;;;;;7.53;4.30;;;13.20;99.90;;;;;;5104841;28;20051;-68
2024/02/16 02:04:54;;;;;;;8.95;4.97;;;13.10;99.90;;;;;;5085155;28;20048;-68
2024/02/16 02:07:26;;;;;;;19.80;4.60;;;13.10;99.90;;;;;;5104903;28;20043;-68
2024/02/16 02:09:53;;;;;;;9.55;3.90;;;13.10;99.90;;;;;;5084983;28;20130;-68
2024/02/16 02:12:20;;;;;;;8.38;4.10;;;13.00;99.90;;;;;;5096317;28;20405;-68
2024/02/16 02:14:47;;;;;;;9.38;3.92;;;13.00;99.90;;;;;;5104756;28;20062;-67
2024/02/16 02:17:14;;;;;;;6.07;3.75;;;13.00;99.90;;;;;;5092112;28;20265;-67
2024/02/16 02:19:41;;;;;;;12.98;4.68;;;12.90;99.90;;;;;;5102969;28;20168;-66
2024/02/16 02:22:18;;;;;;;11.85;4.55;;;12.90;99.90;;;;;;5083852;28;20070;-69
2024/02/16 02:24:45;;;;;;;11.25;5.13;;;12.90;99.90;;;;;;5106511;28;20529;-68
2024/02/16 02:27:15;;;;;;;9.07;4.40;;;12.80;99.90;;;;;;5084108;28;20048;-67
2024/02/16 02:29:42;;;;;;;10.32;4.90;;;12.80;99.90;;;;;;5106069;28;20404;-67
2024/02/16 02:32:09;;;;;;;7.88;4.43;;;12.80;99.90;;;;;;5083066;28;20180;-67
2024/02/16 02:34:36;;;;;;;11.38;4.65;;;12.90;99.90;;;;;;5094920;28;20570;-66
2024/02/16 02:37:06;;;;;;;9.80;5.05;;;12.80;99.90;;;;;;5105413;28;20056;-67
2024/02/16 02:39:33;;;;;;;11.13;4.47;;;12.90;99.90;;;;;;5094658;28;20084;-68
2024/02/16 02:42:00;;;;;;;10.65;4.78;;;12.80;99.90;;;;;;5101623;28;20089;-68
2024/02/16 02:44:27;;;;;;;15.02;5.00;;;12.90;99.90;;;;;;5101637;28;20058;-67
2024/02/16 02:46:54;;;;;;;11.20;4.63;;;12.80;99.90;;;;;;5093432;28;20097;-66
2024/02/16 02:49:21;;;;;;;19.35;5.35;;;12.70;99.90;;;;;;5093449;28;20048;-67
2024/02/16 02:51:48;;;;;;;13.50;4.50;;;12.80;99.90;;;;;;5101749;28;20055;-68
2024/02/16 02:54:14;;;;;;;9.77;5.00;;;12.70;99.90;;;;;;5100112;28;20071;-67
2024/02/16 02:56:42;;;;;;;11.50;4.53;;;12.70;99.90;;;;;;5097988;28;20055;-67
2024/02/16 02:59:10;;;;;;;8.65;5.10;;;12.60;99.90;;;;;;5105780;28;20055;-67
2024/02/16 03:01:37;;;;;;;8.85;4.80;;;12.60;99.90;;;;;;5104891;28;20060;-67
2024/02/16 03:04:04;;;;;;;9.57;4.75;;;12.70;99.90;;;;;;5104560;28;20427;-67
2024/02/16 03:06:31;;;;;;;15.48;5.25;;;12.60;99.90;;;;;;5086934;28;20210;-68
2024/02/16 03:08:58;;;;;;;11.43;5.22;;;12.70;99.90;;;;;;5078561;28;20370;-68
2024/02/16 03:11:25;;;;;;;11.15;5.20;;;12.60;99.90;;;;;;5103987;28;20035;-67
2024/02/16 03:13:53;;;;;;;11.07;5.18;;;12.60;99.90;;;;;;5104898;28;20124;-68
2024/02/16 03:16:19;;;;;;;11.35;4.95;;;12.60;99.90;;;;;;5101646;28;20061;-68
2024/02/16 03:18:46;;;;;;;8.65;5.20;;;12.60;99.90;;;;;;5100797;28;20051;-68
2024/02/16 03:21:17;;;;;;;8.55;4.78;;;12.60;99.90;;;;;;5096915;28;20544;-67
2024/02/16 03:23:44;;;;;;;9.93;4.97;;;12.60;99.90;;;;;;5097473;28;20567;-67
2024/02/16 03:26:18;;;;;;;8.82;4.50;;;12.60;99.90;;;;;;5103769;28;20051;-67
2024/02/16 03:28:47;;;;;;;9.40;4.65;;;12.60;99.90;;;;;;5100719;28;20104;-67
2024/02/16 03:31:20;;;;;;;10.10;4.75;;;12.60;99.90;;;;;;5085255;28;20040;-67
2024/02/16 03:33:48;;;;;;;7.45;3.63;;;12.60;99.90;;;;;;5085047;28;20119;-67
2024/02/16 03:36:16;;;;;;;9.77;4.00;;;12.60;99.90;;;;;;5103129;28;20047;-67
2024/02/16 03:38:47;;;;;;;6.85;4.07;;;12.50;99.90;;;;;;5079652;28;20054;-67
2024/02/16 03:41:14;;;;;;;6.28;3.78;;;12.60;99.90;;;;;;5092935;28;20047;-67
2024/02/16 03:43:42;;;;;;;9.20;3.72;;;12.60;99.90;;;;;;5081775;28;20094;-67
2024/02/16 03:46:09;;;;;;;7.03;4.43;;;12.50;99.90;;;;;;5088208;28;20043;-67
2024/02/16 03:48:36;;;;;;;12.20;5.13;;;12.50;99.90;;;;;;5104793;28;20039;-68
2024/02/16 03:51:04;;;;;;;8.52;4.97;;;12.50;99.90;;;;;;5101687;28;20048;-68
2024/02/16 03:53:30;;;;;;;11.05;4.55;;;12.50;99.90;;;;;;5101655;28;20491;-69
2024/02/16 03:55:57;;;;;;;8.90;3.78;;;12.50;99.90;;;;;;5100851;28;20104;-67
2024/02/16 03:58:24;;;;;;;9.25;4.03;;;12.50;99.90;;;;;;5082523;28;20731;-69
2024/02/16 04:00:54;;;;;;;7.82;4.30;;;12.50;99.90;;;;;;5086573;28;20112;-68
2024/02/16 04:03:20;;;;;;;6.57;3.83;;;12.40;99.90;;;;;;5105089;28;20546;-68
2024/02/16 04:05:48;;;;;;;9.18;5.70;;;12.30;99.90;;;;;;5101320;28;20085;-70
2024/02/16 04:08:15;;;;;;;9.95;4.45;;;12.30;99.90;;;;;;5104893;28;20570;-69
2024/02/16 04:10:41;;;;;;;10.27;4.47;;;12.20;99.90;;;;;;5077298;28;20048;-66
2024/02/16 04:13:09;;;;;;;7.63;5.25;;;12.10;99.90;;;;;;5101876;28;20354;-69
2024/02/16 04:15:35;;;;;;;7.72;4.85;;;12.10;99.90;;;;;;5096193;28;20048;-69
2024/02/16 04:18:03;;;;;;;7.97;5.05;;;12.00;99.90;;;;;;5104201;28;20040;-68
2024/02/16 04:20:30;;;;;;;11.10;4.93;;;12.10;99.90;;;;;;5098513;28;20094;-68
2024/02/16 04:22:57;;;;;;;7.22;4.43;;;12.10;99.90;;;;;;5093360;28;20487;-68
2024/02/16 04:25:24;;;;;;;9.35;5.22;;;12.00;99.90;;;;;;5099422;28;20044;-68
2024/02/16 04:27:50;;;;;;;7.45;4.95;;;12.00;99.90;;;;;;5100505;28;20047;-68
2024/02/16 04:30:17;;;;;;;8.55;5.05;;;11.90;99.90;;;;;;5104122;28;20044;-67
2024/02/16 04:32:44;;;;;;;8.00;4.82;;;11.90;99.90;;;;;;5103327;28;20039;-69
2024/02/16 04:35:17;;;;;;;7.57;4.82;;;11.80;99.90;;;;;;5105424;28;20039;-67
2024/02/16 04:37:47;;;;;;;8.52;4.65;;;11.80;99.90;;;;;;5103240;28;20127;-69
2024/02/16 04:40:14;;;;;;;9.98;6.20;;;11.80;99.90;;;;;;5107537;28;20047;-68
2024/02/16 04:42:41;;;;;;;7.60;5.13;;;11.80;99.90;;;;;;5091157;28;20048;-68
2024/02/16 04:45:11;;;;;;;9.15;5.50;;;11.70;99.90;;;;;;5100857;28;20047;-68
2024/02/16 04:47:38;;;;;;;9.20;4.68;;;11.70;99.90;;;;;;5087994;28;20040;-69
2024/02/16 04:50:09;;;;;;;9.40;5.55;;;11.70;99.90;;;;;;5108956;28;20258;-67
2024/02/16 04:52:37;;;;;;;9.02;4.85;;;11.60;99.90;;;;;;5109463;28;20050;-69
2024/02/16 04:55:05;;;;;;;7.32;4.95;;;11.60;99.90;;;;;;5111370;28;20083;-68
2024/02/16 04:57:33;;;;;;;7.45;5.03;;;11.70;99.90;;;;;;5108472;28;20070;-69
2024/02/16 05:00:00;;;;;;;7.47;3.88;;;11.70;99.90;;;;;;5107717;28;20488;-66
2024/02/16 05:02:27;;;;;;;7.38;4.38;;;11.60;99.90;;;;;;5107974;28;20071;-67
2024/02/16 05:04:54;;;;;;;7.40;4.22;;;11.60;99.90;;;;;;5106973;28;20104;-67
2024/02/16 05:07:21;;;;;;;7.28;3.78;;;11.60;99.90;;;;;;5109295;28;20048;-67
2024/02/16 05:09:49;;;;;;;3.88;2.75;;;11.60;99.90;;;;;;5101426;28;20060;-67
2024/02/16 05:12:18;;;;;;;7.72;3.78;;;11.60;99.90;;;;;;5109976;28;20050;-67
2024/02/16 05:14:48;;;;;;;6.13;4.28;;;11.60;99.90;;;;;;5097333;28;20071;-68
2024/02/16 05:17:16;;;;;;;6.95;3.40;;;11.60;99.90;;;;;;5097777;28;20048;-67
2024/02/16 05:19:43;;;;;;;7.28;3.50;;;11.60;99.90;;;;;;5104747;28;20105;-69
2024/02/16 05:22:09;;;;;;;4.40;3.17;;;11.60;99.90;;;;;;5103948;28;20395;-67
2024/02/16 05:24:36;;;;;;;6.55;3.17;;;11.60;99.90;;;;;;5106808;28;20047;-68
2024/02/16 05:27:04;;;;;;;4.63;2.80;;;11.60;99.90;;;;;;5107155;28;20071;-66
2024/02/16 05:29:30;;;;;;;4.57;3.28;;;11.60;99.90;;;;;;5106759;28;20070;-66
2024/02/16 05:31:57;;;;;;;5.75;2.72;;;11.60;99.90;;;;;;5107700;28;20309;-66
2024/02/16 05:34:24;;;;;;;4.53;3.28;;;11.60;99.90;;;;;;5106911;28;20537;-67
2024/02/16 05:36:51;;;;;;;5.78;2.90;;;11.60;99.90;;;;;;5106903;28;20041;-67
2024/02/16 05:39:26;;;;;;;4.93;3.17;;;11.60;99.90;;;;;;5107353;28;20077;-68
2024/02/16 05:41:53;;;;;;;4.43;3.17;;;11.60;99.90;;;;;;5106927;28;20729;-68
2024/02/16 05:44:20;;;;;;;4.47;3.30;;;11.50;99.90;;;;;;5068846;28;20113;-68
2024/02/16 05:46:47;;;;;;;4.80;3.45;;;11.50;99.90;;;;;;5084726;28;20043;-68
2024/02/16 05:49:16;;;;;;;5.38;3.53;;;11.60;99.90;;;;;;5105099;28;20054;-67
2024/02/16 05:52:01;;;;;;;6.22;3.80;;;11.50;99.90;;;;;;5072546;28;20191;-67
2024/02/16 05:54:28;;;;;;;5.55;4.30;;;11.50;99.90;;;;;;5107798;28;20040;-68
2024/02/16 05:56:55;;;;;;;5.32;3.33;;;11.50;99.90;;;;;;5105860;28;20063;-67
2024/02/16 05:59:22;;;;;;;5.53;3.08;;;11.40;99.90;;;;;;5100751;28;20508;-68
2024/02/16 06:01:49;;;;;;;4.85;2.80;;;11.40;99.90;;;;;;5104418;28;20492;-67
2024/02/16 06:04:16;;;;;;;3.80;3.10;;;11.30;99.90;;;;;;5103276;28;20079;-67
2024/02/16 06:06:43;;;;;;;4.13;3.03;;;11.30;99.90;;;;;;5106491;28;20062;-68
2024/02/16 06:09:10;;;;;;;4.28;2.45;;;11.30;99.90;;;;;;5105844;28;20047;-68
2024/02/16 06:11:38;;;;;;;4.65;2.45;;;11.30;99.90;;;;;;5104510;28;20519;-67
2024/02/16 06:14:05;;;;;;;4.05;2.47;;;11.30;99.90;;;;;;5103012;28;20043;-67
2024/02/16 06:16:33;;;;;;;3.22;1.75;;;11.20;99.90;;;;;;5106107;28;20084;-68
2024/02/16 06:19:00;;;;;;;4.30;1.70;;;11.20;99.90;;;;;;5083701;28;20504;-68
2024/02/16 06:21:27;;;;;;;13.43;2.55;;;11.20;99.90;;;;;;5083062;28;20035;-68
2024/02/16 06:23:54;;;;;;;2.33;1.65;;;11.20;99.90;;;;;;5103696;28;20036;-68
2024/02/16 06:26:20;;;;;;;7.43;3.25;;;11.20;99.90;;;;;;5103836;28;20050;-67
2024/02/16 06:28:47;;;;;;;6.35;1.83;;;11.20;99.90;;;;;;5106988;28;20055;-67
2024/02/16 06:31:14;;;;;;;3.13;1.83;;;11.20;99.90;;;;;;5105576;28;20134;-67
2024/02/16 06:33:41;;;;;;;3.78;1.58;;;11.20;99.90;;;;;;5087484;28;20156;-68
2024/02/16 06:36:09;;;;;;;3.22;1.73;;;11.20;99.90;;;;;;5104325;28;20096;-67
2024/02/16 06:38:39;;;;;;;6.82;2.05;;;11.10;99.90;;;;;;5105110;28;20101;-66
2024/02/16 06:41:06;;;;;;;5.95;1.95;;;11.10;99.90;;;;;;5103639;28;20047;-67
2024/02/16 06:43:33;;;;;;;1.80;1.45;;;11.10;99.90;;;;;;5102854;28;20040;-67
2024/02/16 06:46:00;;;;;;;2.47;1.58;;;11.10;99.90;;;;;;5102030;28;20047;-67
2024/02/16 06:48:27;;;;;;;4.82;1.73;;;11.10;99.90;;;;;;5104434;28;20324;-68
2024/02/16 06:50:54;;;;;;;2.35;1.52;;;11.10;99.90;;;;;;5062576;28;20672;-68
2024/02/16 06:53:21;;;;;;;3.70;1.75;;;11.10;99.90;;;;;;5105991;28;20040;-68
2024/02/16 06:55:48;;;;;;;2.33;1.58;;;11.10;99.90;;;;;;5102363;28;20070;-67
2024/02/16 06:58:15;;;;;;;3.88;1.63;;;11.10;99.90;;;;;;5104741;28;20105;-67
2024/02/16 07:00:42;;;;;;;3.97;1.92;;;11.00;99.90;;;;;;5099557;28;20040;-69
2024/02/16 07:03:09;;;;;;;2.47;1.25;;;11.10;99.90;;;;;;5100794;28;20047;-68
2024/02/16 07:05:36;;;;;;;2.35;1.33;;;11.00;99.90;;;;;;5102567;28;20043;-68
2024/02/16 07:08:06;;;;;;;1.83;1.15;;;11.00;99.90;;;;;;5099577;28;20044;-69
2024/02/16 07:10:33;;;;;;;4.57;2.90;;;11.00;99.90;;;;;;5103531;28;20047;-69
2024/02/16 07:13:00;;;;;;;3.60;1.92;;;11.00;99.90;;;;;;5104667;28;20051;-68
2024/02/16 07:15:28;;;;;;;6.10;1.80;;;10.90;99.90;;;;;;5104543;28;20054;-69
2024/02/16 07:17:55;;;;;;;2.38;1.60;;;10.90;99.90;;;;;;5100004;28;20051;-68
2024/02/16 07:20:22;;;;;;;3.05;1.52;;;10.90;99.90;;;;;;5096973;28;20051;-69
2024/02/16 07:22:51;;;;;;;4.10;2.10;;;10.90;99.90;;;;;;5103414;28;20047;-69
2024/02/16 07:25:18;;;;;;;3.13;2.20;;;10.90;99.90;;;;;;5101723;28;20499;-68
2024/02/16 07:27:45;;;;;;;3.85;2.10;;;10.90;99.90;;;;;;5101323;28;20039;-68
2024/02/16 07:30:13;;;;;;;5.45;1.67;;;10.90;99.90;;;;;;5102716;28;20071;-68
2024/02/16 07:32:50;;;;;;;4.78;1.70;;;10.90;99.90;;;;;;5098226;28;20189;-68
2024/02/16 07:35:17;;;;;;;4.93;1.58;;;10.90;99.90;;;;;;5098716;28;20040;-69
2024/02/16 07:37:51;;;;;;;2.85;1.45;;;10.90;99.90;;;;;;5101614;28;20046;-69
2024/02/16 07:40:18;;;;;;;3.25;1.30;;;10.80;99.90;;;;;;5101906;28;20496;-68
2024/02/16 07:42:45;;;;;;;3.13;1.33;;;10.80;99.90;;;;;;5093078;28;20040;-68
2024/02/16 07:45:12;;;;;;;2.83;1.77;;;10.80;99.90;;;;;;5104334;28;20476;-69
2024/02/16 07:47:42;;;;;;;4.53;1.67;;;10.70;99.90;;;;;;5096450;28;20698;-69
2024/02/16 07:50:09;;;;;;;13.52;2.05;;;10.70;99.90;;;;;;5102788;28;20137;-68
2024/02/16 07:52:37;;;;;;;3.72;1.48;;;10.70;99.90;;;;;;5105371;28;20047;-69
2024/02/16 07:55:05;;;;;;;5.50;1.90;;;10.60;99.90;;;;;;5087455;28;20050;-68
2024/02/16 07:57:32;;;;;;;4.15;1.67;;;10.60;99.90;;;;;;5104807;28;20077;-69
2024/02/16 07:59:59;;;;;;;3.67;1.63;;;10.60;99.90;;;;;;5104466;28;20032;-69
2024/02/16 08:02:26;;;;;;;4.70;1.70;;;10.60;99.90;;;;;;5080957;28;20078;-68
2024/02/16 08:04:53;;;;;;;6.30;2.53;;;10.60;99.90;;;;;;5104208;28;20458;-69
2024/02/16 08:07:20;;;;;;;5.32;2.08;;;10.60;99.90;;;;;;5093968;28;20048;-69
2024/02/16 08:09:50;;;;;;;4.75;1.80;;;10.60;99.90;;;;;;5096764;28;20043;-69
2024/02/16 08:12:16;;;;;;;6.07;2.58;;;10.60;99.90;;;;;;5101517;28;20487;-69
2024/02/16 08:14:44;;;;;;;6.50;1.85;;;10.60;99.90;;;;;;5097577;28;20138;-69
2024/02/16 08:17:11;;;;;;;3.58;2.22;;;10.60;99.90;;;;;;5107149;28;20128;-69
2024/02/16 08:19:51;;;;;;;8.85;2.28;;;10.60;99.90;;;;;;5103234;28;20047;-68
2024/02/16 08:22:18;;;;;;;11.15;2.50;;;10.60;99.90;;;;;;5104088;28;20052;-69
2024/02/16 08:24:46;;;;;;;6.22;2.90;;;10.50;99.90;;;;;;5108176;28;20044;-69
2024/02/16 08:27:15;;;;;;;9.15;3.00;;;10.50;99.90;;;;;;5104632;28;20071;-69
2024/02/16 08:29:43;;;;;;;8.88;2.85;;;10.50;99.90;;;;;;5106441;28;20537;-69
2024/02/16 08:32:10;;;;;;;5.78;2.65;;;10.50;99.90;;;;;;5108325;28;20036;-68
2024/02/16 08:34:37;;;;;;;9.35;3.10;;;10.50;99.90;;;;;;5101223;28;20054;-68
2024/02/16 08:37:05;;;;;;;8.40;3.30;;;10.50;99.90;;;;;;5106751;28;20535;-68
2024/02/16 08:39:34;;;;;;;6.47;3.40;;;10.50;99.90;;;;;;5088550;28;20568;-67
2024/02/16 08:42:03;;;;;;;6.65;3.20;;;10.50;99.90;;;;;;5102340;28;20069;-67
2024/02/16 08:44:30;;;;;;;11.20;3.13;;;10.40;99.90;;;;;;5086084;28;20139;-67
2024/02/16 08:46:57;;;;;;;9.90;5.57;;;10.40;99.90;;;;;;5103027;28;20054;-69
2024/02/16 08:49:23;;;;;;;9.48;3.75;;;10.40;99.90;;;;;;5082283;28;20044;-68
2024/02/16 08:51:50;;;;;;;9.80;3.65;;;10.30;99.90;;;;;;5096178;28;20066;-68
2024/02/16 08:54:18;;;;;;;11.95;3.60;;;10.30;99.90;;;;;;5088041;28;20251;-68
2024/02/16 08:56:48;;;;;;;14.25;3.53;;;10.40;99.90;;;;;;5096276;28;20051;-68
2024/02/16 08:59:14;;;;;;;9.77;4.13;;;10.40;99.90;;;;;;5106803;28;20439;-68
2024/02/16 09:01:42;;;;;;;9.50;4.50;;;10.40;99.90;;;;;;5103503;28;20046;-68
2024/02/16 09:04:09;;;;;;;8.85;3.90;;;10.50;99.90;;;;;;5101450;28;20046;-68
2024/02/16 09:06:38;;;;;;;12.32;4.57;;;10.40;99.90;;;;;;5103643;28;20132;-68
2024/02/16 09:09:07;;;;;;;12.60;4.10;;;10.40;99.90;;;;;;5103698;28;20078;-67
2024/02/16 09:11:34;;;;;;;9.65;3.60;;;10.40;99.90;;;;;;5104809;28;20048;-68
2024/02/16 09:14:01;;;;;;;11.52;3.78;;;10.50;99.90;;;;;;5104881;28;20051;-68
2024/02/16 09:16:28;;;;;;;12.20;4.50;;;10.60;99.90;;;;;;5104525;28;20047;-68
2024/02/16 09:18:54;;;;;;;13.63;3.88;;;10.80;99.90;;;;;;5103340;28;20047;-68
2024/02/16 09:21:23;;;;;;;13.02;4.13;;;10.70;99.90;;;;;;5101724;28;20063;-68
2024/02/16 09:23:50;;;;;;;16.90;3.50;;;10.80;99.90;;;;;;5103320;28;20052;-68
2024/02/16 09:26:18;;;;;;;15.60;4.45;;;10.80;99.90;;;;;;5106056;28;20508;-68
2024/02/16 09:28:45;;;;;;;15.43;4.13;;;10.80;99.90;;;;;;5103647;28;20458;-68
2024/02/16 09:31:15;;;;;;;12.70;3.72;;;10.80;99.90;;;;;;5105869;28;20523;-69
2024/02/16 09:33:42;;;;;;;9.50;4.35;;;10.80;99.90;;;;;;5102392;28;20089;-69
2024/02/16 09:36:09;;;;;;;13.07;4.47;;;10.80;99.90;;;;;;5101246;28;20468;-69
2024/02/16 09:38:36;;;;;;;10.38;4.00;;;10.70;99.90;;;;;;5106188;28;20048;-68
2024/02/16 09:41:03;;;;;;;14.02;4.03;;;10.70;99.90;;;;;;5088112;28;20075;-68
2024/02/16 09:43:30;;;;;;;16.17;3.53;;;10.80;99.90;;;;;;5092526;28;20052;-69
2024/02/16 09:45:58;;;;;;;11.38;3.67;;;10.90;99.90;;;;;;5088939;28;20052;-68
2024/02/16 09:48:26;;;;;;;13.38;4.57;;;11.00;99.90;;;;;;5105545;28;20051;-68
2024/02/16 09:50:55;;;;;;;18.67;3.95;;;11.00;99.90;;;;;;5105291;28;20047;-70
2024/02/16 09:53:27;;;;;;;10.85;3.30;;;11.00;99.90;;;;;;5100342;28;20480;-69
2024/02/16 09:55:54;;;;;;;11.38;4.00;;;11.00;99.90;;;;;;4740070;28;10000147;-68
2024/02/16 09:58:21;;;;;;;10.57;4.07;;;11.00;99.90;;;;;;5100545;28;20059;-68
2024/02/16 10:00:57;;;;;;;16.73;4.82;;;11.00;99.90;;;;;;5084855;28;20104;-69
2024/02/16 10:03:29;;;;;;;10.63;3.70;;;11.10;99.90;;;;;;5098159;28;20439;-69
2024/02/16 10:06:09;;;;;;;12.75;3.55;;;11.10;99.90;;;;;;5102662;28;20063;-69
2024/02/16 10:08:52;;;;;;;13.40;3.85;;;11.20;99.90;;;;;;5097653;28;20047;-69
2024/02/16 10:11:21;;;;;;;14.80;4.35;;;11.20;99.90;;;;;;5100629;28;20104;-68
2024/02/16 10:14:02;;;;;;;12.13;3.90;;;11.20;99.90;;;;;;5099071;28;20492;-68
2024/02/16 10:16:30;;;;;;;13.80;3.90;;;11.30;99.90;;;;;;5103529;28;20046;-68
2024/02/16 10:19:04;;;;;;;14.13;3.50;;;11.30;99.90;;;;;;5105395;28;20148;-69
2024/02/16 10:21:31;;;;;;;14.63;5.03;;;11.40;99.90;;;;;;5084806;28;20101;-68
2024/02/16 10:24:00;;;;;;;17.17;3.95;;;11.50;99.90;;;;;;5105790;28;20058;-69
2024/02/16 10:26:28;;;;;;;10.55;3.08;;;11.50;99.90;;;;;;5106157;28;20043;-68
2024/02/16 10:28:58;;;;;;;16.38;3.25;;;11.50;99.90;;;;;;5106808;28;20083;-69
2024/02/16 10:31:29;;;;;;;13.48;3.67;;;11.50;99.90;;;;;;5105505;28;20428;-69
2024/02/16 10:34:01;;;;;;;14.25;3.78;;;11.60;99.90;;;;;;5103274;28;20044;-68
2024/02/16 10:36:29;;;;;;;16.90;4.95;;;11.50;99.90;;;;;;5104122;28;20126;-69
2024/02/16 10:38:56;;;;;;;10.98;2.80;;;11.50;99.90;;;;;;5068521;28;20424;-70
2024/02/16 10:41:27;;;;;;;14.00;4.13;;;11.40;99.90;;;;;;5102334;28;20517;-67
2024/02/16 10:43:55;;;;;;;10.25;3.58;;;11.50;99.90;;;;;;5105158;28;20112;-67
2024/02/16 10:46:22;;;;;;;10.82;3.58;;;11.60;99.90;;;;;;5084196;28;20089;-68
2024/02/16 10:48:50;;;;;;;15.30;3.58;;;11.60;99.90;;;;;;5083750;28;20541;-68
2024/02/16 10:51:33;;;;;;;25.75;7.45;;;11.60;99.90;;;;;;5105387;28;20457;-69
2024/02/16 10:54:00;;;;;;;9.20;3.30;;;11.60;99.90;;;;;;5082494;28;20043;-69
2024/02/16 10:56:37;;;;;;;10.43;3.50;;;11.60;99.90;;;;;;5087473;28;20048;-68
2024/02/16 10:59:05;;;;;;;19.85;3.30;;;11.60;99.90;;;;;;5102911;28;20055;-68
2024/02/16 11:01:41;;;;;;;16.38;3.10;;;11.50;99.90;;;;;;5104113;28;20241;-67
2024/02/16 11:04:15;;;;;;;12.07;2.38;;;11.60;99.90;;;;;;5103146;28;20124;-67
2024/02/16 11:06:49;;;;;;;18.15;3.42;;;11.70;99.90;;;;;;5103782;28;20341;-65
2024/02/16 11:09:29;;;;;;;10.60;2.67;;;11.70;99.90;;;;;;5103629;28;20055;-67
2024/02/16 11:12:00;;;;;;;8.52;3.05;;;11.80;99.90;;;;;;5104518;28;20066;-66
2024/02/16 11:14:40;;;;;;;8.25;2.13;;;11.80;99.90;;;;;;5101951;28;20089;-68
2024/02/16 11:17:22;;;;;;;14.95;2.40;;;11.90;99.90;;;;;;5104248;28;20217;-67
2024/02/16 11:19:49;;;;;;;9.02;1.77;;;12.00;99.90;;;;;;5081406;28;20039;-67
2024/02/16 11:22:17;;;;;;;14.52;2.53;;;12.00;99.90;;;;;;5101402;28;20039;-67
2024/02/16 11:24:46;;;;;;;8.88;1.92;;;12.00;99.90;;;;;;5098977;28;20081;-67
2024/02/16 11:27:21;;;;;;;9.63;2.15;;;12.00;99.90;;;;;;5084354;28;20074;-67
2024/02/16 11:29:48;;;;;;;16.48;2.17;;;12.00;99.90;;;;;;5085809;28;20044;-67
2024/02/16 11:32:16;;;;;;;9.13;2.50;;;12.00;99.90;;;;;;5103643;28;20144;-69
2024/02/16 11:34:42;;;;;;;16.00;2.45;;;12.10;99.90;;;;;;5080749;28;20035;-68
2024/02/16 11:37:10;;;;;;;8.05;2.15;;;12.20;99.90;;;;;;5103776;28;20139;-68
2024/02/16 11:39:38;;;;;;;6.63;2.42;;;12.30;99.90;;;;;;5066009;28;20084;-68
2024/02/16 11:42:11;;;;;;;9.40;2.72;;;12.20;99.90;;;;;;5100809;28;20047;-68
2024/02/16 11:44:39;;;;;;;6.28;1.92;;;12.30;99.90;;;;;;5103832;28;20101;-67
2024/02/16 11:47:14;;;;;;;3.60;2.10;;;12.30;99.90;;;;;;5080052;28;20048;-68
2024/02/16 11:49:41;;;;;;;8.80;2.70;;;12.40;99.90;;;;;;5105176;28;20123;-68
2024/02/16 11:52:08;;;;;;;7.50;2.42;;;12.60;99.90;;;;;;5107035;28;20761;-68
2024/02/16 11:54:36;;;;;;;9.38;1.73;;;12.70;99.90;;;;;;5108654;28;20043;-68
2024/02/16 11:57:04;;;;;;;6.10;1.83;;;12.70;99.90;;;;;;5102880;28;20083;-68
2024/02/16 11:59:31;;;;;;;10.05;2.10;;;12.60;99.90;;;;;;5091085;28;20058;-67
2024/02/16 12:01:58;;;;;;;5.35;1.95;;;12.60;99.90;;;;;;5110375;28;20043;-68
2024/02/16 12:04:29;;;;;;;5.22;2.42;;;12.60;99.90;;;;;;5104836;28;20047;-67
2024/02/16 12:07:03;;;;;;;12.40;3.20;;;12.60;99.90;;;;;;5088702;28;20061;-70
2024/02/16 12:09:34;;;;;;;4.93;2.00;;;12.70;99.90;;;;;;4740512;28;10000472;-69
2024/02/16 12:12:02;;;;;;;3.28;1.58;;;12.70;99.90;;;;;;5079283;28;20051;-68
2024/02/16 12:14:30;;;;;;;4.95;1.92;;;12.70;99.90;;;;;;5087151;28;20039;-66
2024/02/16 12:16:57;;;;;;;4.75;2.13;;;12.70;99.90;;;;;;5103361;28;20055;-66
2024/02/16 12:19:24;;;;;;;3.90;1.67;;;12.60;99.90;;;;;;5105174;28;20075;-68
2024/02/16 12:21:52;;;;;;;6.82;1.95;;;12.70;99.90;;;;;;5104163;28;20051;-68
2024/02/16 12:24:20;;;;;;;11.45;2.25;;;12.70;99.90;;;;;;5088386;28;20043;-68
2024/02/16 12:26:47;;;;;;;5.03;2.08;;;12.80;99.90;;;;;;5078701;28;20048;-67
2024/02/16 12:29:13;;;;;;;5.38;2.17;;;12.80;99.90;;;;;;5105604;28;20100;-67
2024/02/16 12:31:41;;;;;;;6.00;1.83;;;12.80;99.90;;;;;;5103540;28;20059;-67
2024/02/16 12:34:08;;;;;;;4.55;1.80;;;12.90;99.90;;;;;;5102982;28;20511;-67
2024/02/16 12:36:35;;;;;;;7.85;1.58;;;13.00;99.90;;;;;;5087050;28;20039;-67
2024/02/16 12:39:12;;;;;;;4.15;2.00;;;13.10;99.90;;;;;;5101307;28;20070;-69
2024/02/16 12:41:39;;;;;;;7.47;1.65;;;13.20;99.90;;;;;;5100869;28;20065;-68
2024/02/16 12:44:05;;;;;;;3.88;1.30;;;13.30;99.90;;;;;;5086453;28;20781;-67
2024/02/16 12:46:32;;;;;;;4.03;1.90;;;13.20;99.90;;;;;;5097211;28;20060;-67
2024/02/16 12:48:59;;;;;;;5.10;3.03;;;13.30;99.90;;;;;;5084043;28;20093;-67